sensor_id;sensor_type;location;lat;lon;timestamp;pressure;altitude;pressure_sealevel;temperature;humidity
18500;BME280;9379;52.134;11.576;2023-03-20T00:00:28;100967.44;;;14.41;91.66
18500;BME280;9379;52.134;11.576;2023-03-20T00:02:57;100965.63;;;13.86;94.54
18500;BME280;9379;52.134;11.576;2023-03-20T00:05:24;100964.88;;;13.66;96.03
18500;BME280;9379;52.134;11.576;2023-03-20T00:07:53;100960.72;;;13.82;94.54
18500;BME280;9379;52.134;11.576;2023-03-20T00:10:21;100968.47;;;13.75;93.90
18500;BME280;9379;52.134;11.576;2023-03-20T00:12:50;100957.63;;;13.49;95.99
18500;BME280;9379;52.134;11.576;2023-03-20T00:15:26;100950.56;;;13.85;93.64
18500;BME280;9379;52.134;11.576;2023-03-20T00:17:54;100968.22;;;14.23;92.26
18500;BME280;9379;52.134;11.576;2023-03-20T00:20:22;100971.16;;;14.30;91.94
18500;BME280;9379;52.134;11.576;2023-03-20T00:22:49;100969.16;;;14.59;89.91
18500;BME280;9379;52.134;11.576;2023-03-20T00:25:18;100973.81;;;14.57;89.87
18500;BME280;9379;52.134;11.576;2023-03-20T00:27:45;100966.56;;;14.22;90.68
18500;BME280;9379;52.134;11.576;2023-03-20T00:30:19;100972.47;;;14.44;90.28
18500;BME280;9379;52.134;11.576;2023-03-20T00:32:47;100968.94;;;14.53;89.40
18500;BME280;9379;52.134;11.576;2023-03-20T00:35:21;100976.25;;;14.51;89.59
18500;BME280;9379;52.134;11.576;2023-03-20T00:37:51;100970.91;;;14.69;89.06
18500;BME280;9379;52.134;11.576;2023-03-20T00:40:18;100974.44;;;14.87;88.00
18500;BME280;9379;52.134;11.576;2023-03-20T00:42:49;100974.66;;;14.94;87.48
18500;BME280;9379;52.134;11.576;2023-03-20T00:45:18;100976.47;;;15.11;87.06
18500;BME280;9379;52.134;11.576;2023-03-20T00:47:48;100977.69;;;15.16;86.62
18500;BME280;9379;52.134;11.576;2023-03-20T00:50:19;100979.47;;;15.08;86.70
18500;BME280;9379;52.134;11.576;2023-03-20T00:52:46;100981.66;;;15.12;86.61
18500;BME280;9379;52.134;11.576;2023-03-20T00:55:16;100976.09;;;15.06;86.99
18500;BME280;9379;52.134;11.576;2023-03-20T00:57:45;100973.34;;;14.80;88.12
18500;BME280;9379;52.134;11.576;2023-03-20T01:00:33;100984.50;;;14.57;89.63
18500;BME280;9379;52.134;11.576;2023-03-20T01:03:05;100970.84;;;14.61;89.48
18500;BME280;9379;52.134;11.576;2023-03-20T01:05:36;100960.44;;;14.75;89.16
18500;BME280;9379;52.134;11.576;2023-03-20T01:08:05;100973.59;;;14.86;88.51
18500;BME280;9379;52.134;11.576;2023-03-20T01:10:36;100973.28;;;14.26;91.21
18500;BME280;9379;52.134;11.576;2023-03-20T01:13:03;100973.38;;;13.89;92.97
18500;BME280;9379;52.134;11.576;2023-03-20T01:15:31;100971.47;;;14.27;92.11
18500;BME280;9379;52.134;11.576;2023-03-20T01:17:58;100966.34;;;14.61;90.02
18500;BME280;9379;52.134;11.576;2023-03-20T01:20:27;100977.31;;;14.58;90.34
18500;BME280;9379;52.134;11.576;2023-03-20T01:22:54;100979.03;;;14.59;90.10
18500;BME280;9379;52.134;11.576;2023-03-20T01:25:22;100968.84;;;14.63;89.72
18500;BME280;9379;52.134;11.576;2023-03-20T01:27:52;100962.44;;;14.73;89.10
18500;BME280;9379;52.134;11.576;2023-03-20T01:30:21;100960.81;;;14.80;88.77
18500;BME280;9379;52.134;11.576;2023-03-20T01:32:49;100966.88;;;14.82;88.70
18500;BME280;9379;52.134;11.576;2023-03-20T01:35:19;100969.59;;;14.91;88.54
18500;BME280;9379;52.134;11.576;2023-03-20T01:37:47;100968.09;;;14.52;89.79
18500;BME280;9379;52.134;11.576;2023-03-20T01:40:29;100970.91;;;14.51;90.27
18500;BME280;9379;52.134;11.576;2023-03-20T01:42:59;100958.69;;;14.66;89.16
18500;BME280;9379;52.134;11.576;2023-03-20T01:45:32;100969.38;;;14.48;89.91
18500;BME280;9379;52.134;11.576;2023-03-20T01:48:02;100964.88;;;14.49;90.10
18500;BME280;9379;52.134;11.576;2023-03-20T01:50:38;100970.50;;;14.46;90.48
18500;BME280;9379;52.134;11.576;2023-03-20T01:53:08;100968.84;;;14.35;91.21
18500;BME280;9379;52.134;11.576;2023-03-20T01:55:37;100965.09;;;14.55;89.91
18500;BME280;9379;52.134;11.576;2023-03-20T01:58:11;100966.06;;;14.37;90.63
18500;BME280;9379;52.134;11.576;2023-03-20T02:00:39;100972.34;;;14.45;90.50
18500;BME280;9379;52.134;11.576;2023-03-20T02:03:07;100971.69;;;14.34;91.24
18500;BME280;9379;52.134;11.576;2023-03-20T02:05:35;100965.72;;;14.22;91.67
18500;BME280;9379;52.134;11.576;2023-03-20T02:08:14;100963.97;;;14.30;91.39
18500;BME280;9379;52.134;11.576;2023-03-20T02:10:44;100963.47;;;14.45;90.66
18500;BME280;9379;52.134;11.576;2023-03-20T02:13:14;100965.72;;;14.49;90.26
18500;BME280;9379;52.134;11.576;2023-03-20T02:16:06;100970.78;;;14.25;91.04
18500;BME280;9379;52.134;11.576;2023-03-20T02:18:33;100976.44;;;14.12;91.48
18500;BME280;9379;52.134;11.576;2023-03-20T02:21:22;100977.25;;;14.22;91.55
18500;BME280;9379;52.134;11.576;2023-03-20T02:27:05;100970.63;;;13.99;92.33
18500;BME280;9379;52.134;11.576;2023-03-20T02:30:02;100978.16;;;14.13;91.89
18500;BME280;9379;52.134;11.576;2023-03-20T02:33:16;100978.81;;;14.25;91.67
18500;BME280;9379;52.134;11.576;2023-03-20T02:39:05;100983.16;;;14.44;90.92
18500;BME280;9379;52.134;11.576;2023-03-20T02:41:38;100984.13;;;14.52;90.34
18500;BME280;9379;52.134;11.576;2023-03-20T02:44:12;100979.78;;;14.51;90.27
18500;BME280;9379;52.134;11.576;2023-03-20T02:46:47;100983.28;;;14.70;89.08
18500;BME280;9379;52.134;11.576;2023-03-20T02:49:28;100978.41;;;14.83;89.08
18500;BME280;9379;52.134;11.576;2023-03-20T02:52:02;100986.44;;;14.47;89.97
18500;BME280;9379;52.134;11.576;2023-03-20T02:54:38;100993.06;;;14.34;90.67
18500;BME280;9379;52.134;11.576;2023-03-20T02:57:10;100990.91;;;14.19;91.64
18500;BME280;9379;52.134;11.576;2023-03-20T02:59:42;100994.44;;;14.20;91.62
18500;BME280;9379;52.134;11.576;2023-03-20T03:02:14;100996.56;;;14.16;91.79
18500;BME280;9379;52.134;11.576;2023-03-20T03:04:48;101001.19;;;14.24;91.94
18500;BME280;9379;52.134;11.576;2023-03-20T03:07:20;101001.41;;;14.30;91.28
18500;BME280;9379;52.134;11.576;2023-03-20T03:09:52;101004.88;;;14.41;91.02
18500;BME280;9379;52.134;11.576;2023-03-20T03:12:22;101006.56;;;14.14;92.23
18500;BME280;9379;52.134;11.576;2023-03-20T03:14:53;101002.16;;;14.23;91.88
18500;BME280;9379;52.134;11.576;2023-03-20T03:17:24;101011.84;;;13.96;92.91
18500;BME280;9379;52.134;11.576;2023-03-20T03:19:56;101013.72;;;14.41;91.10
18500;BME280;9379;52.134;11.576;2023-03-20T03:22:24;101010.63;;;14.46;90.99
18500;BME280;9379;52.134;11.576;2023-03-20T03:24:53;101017.59;;;14.56;90.04
18500;BME280;9379;52.134;11.576;2023-03-20T03:27:23;101016.91;;;14.27;91.92
18500;BME280;9379;52.134;11.576;2023-03-20T03:29:53;101014.97;;;14.19;92.14
18500;BME280;9379;52.134;11.576;2023-03-20T03:32:25;101020.22;;;14.11;93.26
18500;BME280;9379;52.134;11.576;2023-03-20T03:34:53;101015.03;;;14.37;92.16
18500;BME280;9379;52.134;11.576;2023-03-20T03:37:29;101029.28;;;14.28;92.52
18500;BME280;9379;52.134;11.576;2023-03-20T03:40:07;101026.41;;;14.12;93.33
18500;BME280;9379;52.134;11.576;2023-03-20T03:42:45;101032.41;;;13.86;95.24
18500;BME280;9379;52.134;11.576;2023-03-20T03:45:19;101035.84;;;14.34;93.09
18500;BME280;9379;52.134;11.576;2023-03-20T03:47:51;101041.03;;;14.17;93.31
18500;BME280;9379;52.134;11.576;2023-03-20T03:50:22;101039.44;;;13.87;95.63
18500;BME280;9379;52.134;11.576;2023-03-20T03:52:53;101036.34;;;13.92;95.85
18500;BME280;9379;52.134;11.576;2023-03-20T03:55:27;101030.53;;;13.59;97.37
18500;BME280;9379;52.134;11.576;2023-03-20T03:57:57;101032.50;;;13.67;97.05
18500;BME280;9379;52.134;11.576;2023-03-20T04:00:26;101042.63;;;14.00;96.38
18500;BME280;9379;52.134;11.576;2023-03-20T04:02:55;101047.41;;;13.60;98.60
18500;BME280;9379;52.134;11.576;2023-03-20T04:05:25;101054.59;;;13.50;99.79
18500;BME280;9379;52.134;11.576;2023-03-20T04:07:55;101054.81;;;12.69;100.00
18500;BME280;9379;52.134;11.576;2023-03-20T04:10:22;101058.53;;;12.97;100.00
18500;BME280;9379;52.134;11.576;2023-03-20T04:12:50;101059.34;;;12.88;100.00
18500;BME280;9379;52.134;11.576;2023-03-20T04:15:17;101065.00;;;12.45;100.00
18500;BME280;9379;52.134;11.576;2023-03-20T04:17:46;101070.66;;;12.51;100.00
18500;BME280;9379;52.134;11.576;2023-03-20T04:20:13;101072.09;;;12.84;100.00
18500;BME280;9379;52.134;11.576;2023-03-20T04:22:40;101059.91;;;12.82;100.00
18500;BME280;9379;52.134;11.576;2023-03-20T04:25:13;101077.84;;;12.70;100.00
18500;BME280;9379;52.134;11.576;2023-03-20T04:27:40;101090.16;;;12.62;100.00
18500;BME280;9379;52.134;11.576;2023-03-20T04:30:11;101092.69;;;12.53;100.00
18500;BME280;9379;52.134;11.576;2023-03-20T04:32:37;101093.44;;;12.65;100.00
18500;BME280;9379;52.134;11.576;2023-03-20T04:35:05;101081.56;;;12.48;100.00
18500;BME280;9379;52.134;11.576;2023-03-20T04:37:32;101078.75;;;13.00;98.43
18500;BME280;9379;52.134;11.576;2023-03-20T04:39:59;101078.31;;;12.95;98.65
18500;BME280;9379;52.134;11.576;2023-03-20T04:42:26;101086.78;;;13.19;96.45
18500;BME280;9379;52.134;11.576;2023-03-20T04:44:53;101079.72;;;12.89;98.36
18500;BME280;9379;52.134;11.576;2023-03-20T04:47:21;101066.13;;;13.31;95.90
18500;BME280;9379;52.134;11.576;2023-03-20T04:49:48;101076.38;;;13.35;95.89
18500;BME280;9379;52.134;11.576;2023-03-20T04:52:14;101060.91;;;13.00;96.80
18500;BME280;9379;52.134;11.576;2023-03-20T04:54:41;101082.78;;;12.84;97.38
18500;BME280;9379;52.134;11.576;2023-03-20T04:57:08;101075.53;;;13.35;95.33
18500;BME280;9379;52.134;11.576;2023-03-20T04:59:35;101073.97;;;13.42;95.19
18500;BME280;9379;52.134;11.576;2023-03-20T05:02:01;101072.72;;;12.98;96.04
18500;BME280;9379;52.134;11.576;2023-03-20T05:04:30;101085.06;;;13.08;95.58
18500;BME280;9379;52.134;11.576;2023-03-20T05:06:56;101080.13;;;12.94;96.55
18500;BME280;9379;52.134;11.576;2023-03-20T05:09:23;101089.44;;;13.29;95.41
18500;BME280;9379;52.134;11.576;2023-03-20T05:11:50;101095.19;;;12.45;98.90
18500;BME280;9379;52.134;11.576;2023-03-20T05:14:17;101096.69;;;12.38;100.00
18500;BME280;9379;52.134;11.576;2023-03-20T05:16:43;101079.38;;;12.53;98.95
18500;BME280;9379;52.134;11.576;2023-03-20T05:19:10;101088.22;;;12.54;99.25
18500;BME280;9379;52.134;11.576;2023-03-20T05:21:39;101087.56;;;12.81;98.44
18500;BME280;9379;52.134;11.576;2023-03-20T05:24:06;101093.88;;;12.80;98.52
18500;BME280;9379;52.134;11.576;2023-03-20T05:26:33;101100.75;;;12.82;97.75
18500;BME280;9379;52.134;11.576;2023-03-20T05:28:59;101101.50;;;13.13;96.64
18500;BME280;9379;52.134;11.576;2023-03-20T05:31:26;101100.72;;;12.63;99.13
18500;BME280;9379;52.134;11.576;2023-03-20T05:33:53;101088.50;;;12.70;98.59
18500;BME280;9379;52.134;11.576;2023-03-20T05:36:20;101087.88;;;12.97;97.42
18500;BME280;9379;52.134;11.576;2023-03-20T05:38:48;101098.69;;;13.15;96.28
18500;BME280;9379;52.134;11.576;2023-03-20T05:41:15;101097.06;;;13.43;94.88
18500;BME280;9379;52.134;11.576;2023-03-20T05:43:42;101092.13;;;13.38;95.23
18500;BME280;9379;52.134;11.576;2023-03-20T05:46:08;101089.00;;;13.53;93.97
18500;BME280;9379;52.134;11.576;2023-03-20T05:48:35;101088.59;;;13.48;94.20
18500;BME280;9379;52.134;11.576;2023-03-20T05:51:02;101095.78;;;13.57;94.15
18500;BME280;9379;52.134;11.576;2023-03-20T05:53:29;101097.19;;;13.22;94.78
18500;BME280;9379;52.134;11.576;2023-03-20T05:55:57;101094.03;;;13.75;93.38
18500;BME280;9379;52.134;11.576;2023-03-20T05:58:24;101096.00;;;13.73;93.41
18500;BME280;9379;52.134;11.576;2023-03-20T06:00:51;101107.28;;;13.09;95.68
18500;BME280;9379;52.134;11.576;2023-03-20T06:03:18;101100.13;;;13.48;95.09
18500;BME280;9379;52.134;11.576;2023-03-20T06:05:45;101097.81;;;13.82;92.83
18500;BME280;9379;52.134;11.576;2023-03-20T06:08:11;101090.97;;;13.51;94.12
18500;BME280;9379;52.134;11.576;2023-03-20T06:10:40;101103.63;;;13.10;95.55
18500;BME280;9379;52.134;11.576;2023-03-20T06:13:08;101099.53;;;13.54;94.95
18500;BME280;9379;52.134;11.576;2023-03-20T06:15:35;101104.72;;;12.88;96.85
18500;BME280;9379;52.134;11.576;2023-03-20T06:18:01;101101.53;;;13.23;95.43
18500;BME280;9379;52.134;11.576;2023-03-20T06:20:28;101099.13;;;13.10;95.45
18500;BME280;9379;52.134;11.576;2023-03-20T06:22:55;101100.53;;;13.53;93.85
18500;BME280;9379;52.134;11.576;2023-03-20T06:25:22;101091.16;;;13.96;91.94
18500;BME280;9379;52.134;11.576;2023-03-20T06:27:49;101094.88;;;14.22;90.41
18500;BME280;9379;52.134;11.576;2023-03-20T06:30:18;101089.38;;;13.87;91.30
18500;BME280;9379;52.134;11.576;2023-03-20T06:32:44;101095.72;;;13.76;91.08
18500;BME280;9379;52.134;11.576;2023-03-20T06:35:11;101087.84;;;14.21;89.38
18500;BME280;9379;52.134;11.576;2023-03-20T06:37:38;101096.38;;;13.97;89.37
18500;BME280;9379;52.134;11.576;2023-03-20T06:40:06;101102.00;;;14.04;88.80
18500;BME280;9379;52.134;11.576;2023-03-20T06:42:34;101095.72;;;14.23;89.03
18500;BME280;9379;52.134;11.576;2023-03-20T06:45:01;101088.53;;;13.86;88.86
18500;BME280;9379;52.134;11.576;2023-03-20T06:47:29;101090.53;;;13.75;89.84
18500;BME280;9379;52.134;11.576;2023-03-20T06:49:56;101097.91;;;14.00;88.71
18500;BME280;9379;52.134;11.576;2023-03-20T06:52:23;101103.56;;;13.87;88.49
18500;BME280;9379;52.134;11.576;2023-03-20T06:54:49;101105.00;;;13.14;91.00
18500;BME280;9379;52.134;11.576;2023-03-20T06:57:16;101113.44;;;13.77;88.54
18500;BME280;9379;52.134;11.576;2023-03-20T06:59:43;101122.41;;;13.95;87.26
18500;BME280;9379;52.134;11.576;2023-03-20T07:02:10;101111.09;;;14.11;87.06
18500;BME280;9379;52.134;11.576;2023-03-20T07:04:38;101131.69;;;14.38;86.65
18500;BME280;9379;52.134;11.576;2023-03-20T07:07:05;101139.31;;;14.33;86.23
18500;BME280;9379;52.134;11.576;2023-03-20T07:09:34;101139.47;;;14.22;85.85
18500;BME280;9379;52.134;11.576;2023-03-20T07:12:02;101144.59;;;14.15;86.00
18500;BME280;9379;52.134;11.576;2023-03-20T07:14:30;101136.06;;;13.92;85.78
18500;BME280;9379;52.134;11.576;2023-03-20T07:16:57;101142.59;;;14.17;86.33
18500;BME280;9379;52.134;11.576;2023-03-20T07:19:23;101147.56;;;14.02;87.06
18500;BME280;9379;52.134;11.576;2023-03-20T07:21:55;101151.94;;;14.04;85.80
18500;BME280;9379;52.134;11.576;2023-03-20T07:24:23;101159.41;;;13.90;86.74
18500;BME280;9379;52.134;11.576;2023-03-20T07:26:50;101150.41;;;14.01;86.83
18500;BME280;9379;52.134;11.576;2023-03-20T07:29:17;101163.09;;;13.80;86.12
18500;BME280;9379;52.134;11.576;2023-03-20T07:31:44;101161.84;;;13.45;87.90
18500;BME280;9379;52.134;11.576;2023-03-20T07:34:11;101147.75;;;13.82;86.92
18500;BME280;9379;52.134;11.576;2023-03-20T07:36:38;101150.13;;;13.75;86.57
18500;BME280;9379;52.134;11.576;2023-03-20T07:39:08;101165.47;;;13.83;86.28
18500;BME280;9379;52.134;11.576;2023-03-20T07:41:35;101170.09;;;13.81;85.96
18500;BME280;9379;52.134;11.576;2023-03-20T07:44:02;101174.91;;;13.58;85.41
18500;BME280;9379;52.134;11.576;2023-03-20T07:46:28;101178.66;;;13.94;85.16
18500;BME280;9379;52.134;11.576;2023-03-20T07:48:55;101163.47;;;14.04;83.83
18500;BME280;9379;52.134;11.576;2023-03-20T07:51:23;101163.63;;;13.73;84.83
18500;BME280;9379;52.134;11.576;2023-03-20T07:53:49;101163.34;;;13.77;84.66
18500;BME280;9379;52.134;11.576;2023-03-20T07:56:18;101158.63;;;14.27;82.81
18500;BME280;9379;52.134;11.576;2023-03-20T07:58:45;101154.81;;;14.29;84.02
18500;BME280;9379;52.134;11.576;2023-03-20T08:01:12;101164.47;;;13.84;83.32
18500;BME280;9379;52.134;11.576;2023-03-20T08:03:39;101160.34;;;13.99;83.16
18500;BME280;9379;52.134;11.576;2023-03-20T08:06:06;101151.53;;;14.45;82.09
18500;BME280;9379;52.134;11.576;2023-03-20T08:08:34;101164.94;;;14.73;81.22
18500;BME280;9379;52.134;11.576;2023-03-20T08:11:01;101162.13;;;14.74;81.74
18500;BME280;9379;52.134;11.576;2023-03-20T08:13:29;101168.69;;;14.43;82.47
18500;BME280;9379;52.134;11.576;2023-03-20T08:15:56;101162.31;;;14.07;84.55
18500;BME280;9379;52.134;11.576;2023-03-20T08:18:23;101156.16;;;13.87;82.71
18500;BME280;9379;52.134;11.576;2023-03-20T08:20:50;101166.00;;;13.86;82.73
18500;BME280;9379;52.134;11.576;2023-03-20T08:23:17;101161.34;;;13.88;83.73
18500;BME280;9379;52.134;11.576;2023-03-20T08:25:46;101169.69;;;13.66;84.27
18500;BME280;9379;52.134;11.576;2023-03-20T08:28:14;101151.81;;;13.76;84.35
18500;BME280;9379;52.134;11.576;2023-03-20T08:30:42;101169.66;;;13.85;83.85
18500;BME280;9379;52.134;11.576;2023-03-20T08:33:09;101172.81;;;14.27;82.42
18500;BME280;9379;52.134;11.576;2023-03-20T08:35:36;101169.41;;;14.35;82.47
18500;BME280;9379;52.134;11.576;2023-03-20T08:38:03;101160.97;;;14.40;82.27
18500;BME280;9379;52.134;11.576;2023-03-20T08:40:30;101173.84;;;14.17;82.54
18500;BME280;9379;52.134;11.576;2023-03-20T08:42:57;101175.06;;;14.32;81.67
18500;BME280;9379;52.134;11.576;2023-03-20T08:45:24;101162.34;;;14.44;82.30
18500;BME280;9379;52.134;11.576;2023-03-20T08:47:53;101176.19;;;14.29;82.62
18500;BME280;9379;52.134;11.576;2023-03-20T08:50:21;101175.28;;;14.58;82.32
18500;BME280;9379;52.134;11.576;2023-03-20T08:52:48;101177.75;;;14.69;81.24
18500;BME280;9379;52.134;11.576;2023-03-20T08:55:15;101176.88;;;14.78;81.80
18500;BME280;9379;52.134;11.576;2023-03-20T08:57:42;101176.59;;;14.35;83.19
18500;BME280;9379;52.134;11.576;2023-03-20T09:00:11;101169.72;;;14.22;83.67
18500;BME280;9379;52.134;11.576;2023-03-20T09:02:38;101176.72;;;14.80;82.10
18500;BME280;9379;52.134;11.576;2023-03-20T09:05:08;101160.34;;;14.55;83.09
18500;BME280;9379;52.134;11.576;2023-03-20T09:07:35;101174.31;;;14.59;82.03
18500;BME280;9379;52.134;11.576;2023-03-20T09:10:03;101152.66;;;14.33;82.87
18500;BME280;9379;52.134;11.576;2023-03-20T09:12:30;101171.38;;;14.52;82.89
18500;BME280;9379;52.134;11.576;2023-03-20T09:14:58;101161.44;;;14.72;82.45
18500;BME280;9379;52.134;11.576;2023-03-20T09:17:25;101146.94;;;14.28;82.52
18500;BME280;9379;52.134;11.576;2023-03-20T09:19:52;101161.69;;;14.69;82.28
18500;BME280;9379;52.134;11.576;2023-03-20T09:22:20;101154.84;;;15.12;81.30
18500;BME280;9379;52.134;11.576;2023-03-20T13:24:17;101063.63;;;15.67;72.01
18500;BME280;9379;52.134;11.576;2023-03-20T13:26:52;101068.78;;;15.86;72.69
18500;BME280;9379;52.134;11.576;2023-03-20T13:29:28;101056.16;;;15.79;73.87
18500;BME280;9379;52.134;11.576;2023-03-20T13:32:08;101065.00;;;15.53;73.41
18500;BME280;9379;52.134;11.576;2023-03-20T13:34:51;101054.38;;;15.61;74.14
18500;BME280;9379;52.134;11.576;2023-03-20T13:37:26;101064.22;;;15.79;73.91
18500;BME280;9379;52.134;11.576;2023-03-20T13:40:09;101058.16;;;15.77;72.98
18500;BME280;9379;52.134;11.576;2023-03-20T13:42:46;101054.84;;;15.83;73.59
18500;BME280;9379;52.134;11.576;2023-03-20T13:45:23;101042.22;;;15.31;74.28
18500;BME280;9379;52.134;11.576;2023-03-20T13:47:52;101055.66;;;15.57;74.12
18500;BME280;9379;52.134;11.576;2023-03-20T13:50:30;101055.75;;;15.47;73.08
18500;BME280;9379;52.134;11.576;2023-03-20T13:53:05;101049.59;;;15.73;73.39
18500;BME280;9379;52.134;11.576;2023-03-20T13:55:42;101050.44;;;15.30;70.89
18500;BME280;9379;52.134;11.576;2023-03-20T13:58:26;101047.88;;;15.46;71.44
18500;BME280;9379;52.134;11.576;2023-03-20T14:01:04;101045.91;;;15.30;72.06
18500;BME280;9379;52.134;11.576;2023-03-20T14:03:37;101046.25;;;15.53;72.70
18500;BME280;9379;52.134;11.576;2023-03-20T14:06:17;101038.88;;;15.11;71.22
18500;BME280;9379;52.134;11.576;2023-03-20T14:08:47;101040.13;;;15.17;71.86
18500;BME280;9379;52.134;11.576;2023-03-20T14:11:27;101036.44;;;15.18;71.02
18500;BME280;9379;52.134;11.576;2023-03-20T14:14:01;101033.66;;;14.92;71.93
18500;BME280;9379;52.134;11.576;2023-03-20T14:16:29;101042.69;;;15.27;71.56
18500;BME280;9379;52.134;11.576;2023-03-20T14:19:07;101038.03;;;15.29;70.41
18500;BME280;9379;52.134;11.576;2023-03-20T14:21:44;101033.44;;;15.21;71.57
18500;BME280;9379;52.134;11.576;2023-03-20T14:24:12;101032.59;;;15.21;71.57
18500;BME280;9379;52.134;11.576;2023-03-20T14:26:42;101037.34;;;15.09;71.19
18500;BME280;9379;52.134;11.576;2023-03-20T14:29:30;101046.34;;;15.43;71.17
18500;BME280;9379;52.134;11.576;2023-03-20T14:34:45;101041.94;;;15.16;70.63
18500;BME280;9379;52.134;11.576;2023-03-20T14:37:32;101046.91;;;14.76;71.38
18500;BME280;9379;52.134;11.576;2023-03-20T14:40:13;101039.13;;;15.18;70.68
18500;BME280;9379;52.134;11.576;2023-03-20T14:42:50;101041.00;;;15.26;70.90
18500;BME280;9379;52.134;11.576;2023-03-20T14:45:30;101033.97;;;15.25;70.77
18500;BME280;9379;52.134;11.576;2023-03-20T14:48:04;101030.53;;;15.32;71.92
18500;BME280;9379;52.134;11.576;2023-03-20T14:50:36;101024.50;;;15.30;71.11
18500;BME280;9379;52.134;11.576;2023-03-20T14:53:13;101026.72;;;15.17;71.74
18500;BME280;9379;52.134;11.576;2023-03-20T14:55:57;101018.47;;;15.10;71.16
18500;BME280;9379;52.134;11.576;2023-03-20T14:58:46;101026.84;;;15.15;71.27
18500;BME280;9379;52.134;11.576;2023-03-20T15:01:15;101031.88;;;15.36;70.40
18500;BME280;9379;52.134;11.576;2023-03-20T15:03:47;101013.22;;;15.44;70.94
18500;BME280;9379;52.134;11.576;2023-03-20T15:06:17;101011.03;;;15.22;70.71
18500;BME280;9379;52.134;11.576;2023-03-20T15:08:48;101028.78;;;15.23;70.52
18500;BME280;9379;52.134;11.576;2023-03-20T15:11:16;101025.13;;;15.06;70.73
18500;BME280;9379;52.134;11.576;2023-03-20T15:13:46;101019.81;;;15.14;70.90
18500;BME280;9379;52.134;11.576;2023-03-20T15:16:14;101031.28;;;15.42;70.68
18500;BME280;9379;52.134;11.576;2023-03-20T15:18:43;101022.56;;;15.05;70.65
18500;BME280;9379;52.134;11.576;2023-03-20T15:21:13;101030.31;;;14.90;70.72
18500;BME280;9379;52.134;11.576;2023-03-20T15:23:41;101006.78;;;14.76;69.35
18500;BME280;9379;52.134;11.576;2023-03-20T15:26:08;101019.84;;;14.79;69.85
18500;BME280;9379;52.134;11.576;2023-03-20T15:28:36;101014.44;;;14.71;69.88
18500;BME280;9379;52.134;11.576;2023-03-20T15:31:05;101024.81;;;14.92;70.39
18500;BME280;9379;52.134;11.576;2023-03-20T15:33:34;101018.16;;;14.60;70.42
18500;BME280;9379;52.134;11.576;2023-03-20T15:36:09;101012.50;;;14.63;70.13
18500;BME280;9379;52.134;11.576;2023-03-20T15:38:37;101016.31;;;14.61;70.18
18500;BME280;9379;52.134;11.576;2023-03-20T15:41:05;101009.50;;;14.66;70.58
18500;BME280;9379;52.134;11.576;2023-03-20T15:43:32;101005.50;;;13.97;70.09
18500;BME280;9379;52.134;11.576;2023-03-20T15:46:02;101022.06;;;14.38;69.93
18500;BME280;9379;52.134;11.576;2023-03-20T15:48:31;101023.47;;;14.32;69.91
18500;BME280;9379;52.134;11.576;2023-03-20T15:50:59;101004.00;;;14.68;69.54
18500;BME280;9379;52.134;11.576;2023-03-20T15:53:32;101012.25;;;14.92;69.03
18500;BME280;9379;52.134;11.576;2023-03-20T15:56:02;101009.75;;;14.91;68.77
18500;BME280;9379;52.134;11.576;2023-03-20T15:58:31;101016.16;;;15.15;69.39
18500;BME280;9379;52.134;11.576;2023-03-20T16:01:00;101014.34;;;14.98;69.16
18500;BME280;9379;52.134;11.576;2023-03-20T16:03:28;101012.81;;;14.96;69.34
18500;BME280;9379;52.134;11.576;2023-03-20T16:05:59;101014.03;;;14.83;68.77
18500;BME280;9379;52.134;11.576;2023-03-20T16:08:28;101017.91;;;14.26;68.24
18500;BME280;9379;52.134;11.576;2023-03-20T16:10:57;101005.47;;;14.62;68.01
18500;BME280;9379;52.134;11.576;2023-03-20T16:13:25;101027.34;;;14.75;68.85
18500;BME280;9379;52.134;11.576;2023-03-20T16:15:54;101015.03;;;14.65;68.88
18500;BME280;9379;52.134;11.576;2023-03-20T16:18:21;101016.19;;;14.98;68.63
18500;BME280;9379;52.134;11.576;2023-03-20T16:20:52;101028.34;;;14.74;68.79
18500;BME280;9379;52.134;11.576;2023-03-20T16:23:31;101029.09;;;14.39;69.71
18500;BME280;9379;52.134;11.576;2023-03-20T16:26:00;101023.63;;;14.31;70.98
18500;BME280;9379;52.134;11.576;2023-03-20T16:28:28;101018.75;;;14.54;70.25
18500;BME280;9379;52.134;11.576;2023-03-20T16:31:05;101006.53;;;14.51;68.93
18500;BME280;9379;52.134;11.576;2023-03-20T16:33:33;101020.31;;;14.47;70.25
18500;BME280;9379;52.134;11.576;2023-03-20T16:36:01;101020.31;;;14.74;69.42
18500;BME280;9379;52.134;11.576;2023-03-20T16:38:32;101002.88;;;14.43;69.05
18500;BME280;9379;52.134;11.576;2023-03-20T16:41:14;101017.94;;;14.44;68.54
18500;BME280;9379;52.134;11.576;2023-03-20T16:43:44;101018.22;;;14.68;68.30
18500;BME280;9379;52.134;11.576;2023-03-20T16:46:16;101016.38;;;14.69;68.40
18500;BME280;9379;52.134;11.576;2023-03-20T16:48:43;101024.03;;;14.81;68.94
18500;BME280;9379;52.134;11.576;2023-03-20T16:51:15;101018.38;;;14.67;68.49
18500;BME280;9379;52.134;11.576;2023-03-20T16:53:46;101027.66;;;14.72;68.88
18500;BME280;9379;52.134;11.576;2023-03-20T16:56:24;101031.31;;;14.89;69.56
18500;BME280;9379;52.134;11.576;2023-03-20T16:58:51;101012.06;;;14.85;69.39
18500;BME280;9379;52.134;11.576;2023-03-20T17:01:20;101018.41;;;14.84;69.20
18500;BME280;9379;52.134;11.576;2023-03-20T17:03:50;101019.56;;;14.82;70.17
18500;BME280;9379;52.134;11.576;2023-03-20T17:06:34;101024.34;;;14.61;69.42
18500;BME280;9379;52.134;11.576;2023-03-20T17:09:16;101034.22;;;14.60;69.68
18500;BME280;9379;52.134;11.576;2023-03-20T17:11:45;101028.84;;;14.60;69.92
18500;BME280;9379;52.134;11.576;2023-03-20T17:14:13;101032.53;;;14.59;70.02